Aeroporto :
LOGIN :

Iscrizione | Disclaimer

   EN    FR    IT 

 










Sommario :    VFR   VFR Marginale   IFR   IFR Intensivo   IFR Molto Intensivo
Visibilità : 
Base nubi : 
>= 8 km
>= 3000ft
5 / 8 km
1000 / 3000 ft
1500m / 5 km
500 / 1000 ft
800 / 1500m
200 / 500 ft
< 800m
< 200 ft
Simboli :   Temporali  Nebbia  Neve Forte  Precipitazioni Forti  Vento > 20 kt
SIGMETs :   Varie  Temporali  Ghiacco  Turbolenza  Onda orograficha  Ceneri Vulcaniche







- Altitudine del aeroporto : 22 ft
- Codice IATA : TUN


DTTA - Tunis Carthage

ULTIMO METAR :
  • 192330Z 14002KT CAVOK 08/06 Q1021 NOSIG

METARs OBSOLETI :
  • 192300Z 13004KT CAVOK 09/05 Q1021 NOSIG
  • 192230Z 14004KT CAVOK 11/06 Q1021 NOSIG
  • 192200Z 14005KT CAVOK 12/07 Q1021 NOSIG
  • 192130Z 13006KT 100V160 CAVOK 12/07 Q1022 NOSIG
  • 192100Z 12007KT 080V150 CAVOK 13/07 Q1021 NOSIG

TAF TAF DTTA
Valido dal 20 a 00 ore il 21 a 00 ore UTC


192300Z 2000/2024 14005KT CAVOK
PROB30
TEMPO 2005/2008 3000 BR FEW016
Nessun NOTAM noto per questo aeroporto.



MetMap, La meteo Aeronautica in un colpo d'occhio ! - Copyright ORBIFLY Dicembre 2007 - Disclaimer

ORBIFLY MET'MAP TEAM :

Programmazione e sviluppo : Alexandra Zaïnal
Concezione e sviluppo : Baudouin d'Aumeries
Co-Programmazione e sviluppo : Marc-Olivier Méhu
Supporto tecnico e logistico : Manuel Goepfert
Aiuto per la traduzione : Arnaldo La Scala

Contatto : metmap@orbifly.com




FONTI E CREDITI :

   NOAA